New Salem, Kansas
Current Conditions -  °F | °C
As of 2:54 PM on Tuesday 27 Jan 2015 (Local Time) from KWLD Reporting Station
Clear Clear  
Wind Chill: 72°   Ceiling: Unl
Heat Index: 72°   Visibility: 10mi
Dew Point: 31°   Wind: 15mph
Humidity: 22%   Direction: 180°S
Pressure: 30.05"   Gusts: NA
Location:  37.2455°N, 96.9242°W
Report Text: KWLD 272054Z AUTO 18013KT 10SM CLR 22/M01 A3005 RMK AO2 SLP176 T02221006 56027
Loading
Personal Weather Stations






























Interactive Weather Map New forecast layout! Learn more

10-Day Weather Forecast

Advertisements
Track Severe Weather on mobile